createdAt,value
2023-05-16T00:01:55.661Z,17.88
2023-05-16T00:04:26.669Z,17.90
2023-05-16T00:06:57.457Z,17.91
2023-05-16T00:09:27.590Z,17.91
2023-05-16T00:11:56.595Z,17.93
2023-05-16T00:14:27.061Z,17.93
2023-05-16T00:16:58.792Z,17.93
2023-05-16T00:19:29.502Z,17.93
2023-05-16T00:21:58.708Z,17.90
2023-05-16T00:24:28.552Z,17.87
2023-05-16T00:26:57.794Z,17.84
2023-05-16T00:29:26.932Z,17.81
2023-05-16T00:31:57.392Z,17.74
2023-05-16T00:34:26.649Z,17.67
2023-05-16T00:36:55.809Z,17.59
2023-05-16T00:39:25.296Z,17.56
2023-05-16T00:41:54.465Z,17.57
2023-05-16T00:44:23.638Z,17.55
2023-05-16T00:46:55.112Z,17.53
2023-05-16T00:49:24.105Z,17.55
2023-05-16T00:51:53.887Z,17.57
2023-05-16T00:54:25.235Z,17.58
2023-05-16T00:56:55.055Z,17.61
2023-05-16T00:59:24.790Z,17.60
2023-05-16T01:01:55.479Z,17.59
2023-05-16T01:04:25.358Z,17.59
2023-05-16T01:06:59.201Z,17.57
2023-05-16T01:09:31.257Z,17.53
2023-05-16T01:12:30.216Z,17.52
2023-05-16T01:15:23.304Z,17.52
2023-05-16T01:18:11.146Z,17.50
2023-05-16T01:21:00.891Z,17.49
2023-05-16T01:23:40.377Z,17.49
2023-05-16T01:26:25.606Z,17.48
2023-05-16T01:28:55.331Z,17.49
2023-05-16T01:31:25.061Z,17.46
2023-05-16T01:33:54.648Z,17.43
2023-05-16T01:36:50.602Z,17.38
2023-05-16T01:39:47.720Z,17.36
2023-05-16T01:42:17.270Z,17.32
2023-05-16T01:44:59.489Z,17.31
2023-05-16T01:47:29.712Z,17.25
2023-05-16T01:50:13.389Z,17.19
2023-05-16T01:53:00.812Z,17.14
2023-05-16T01:55:48.597Z,17.11
2023-05-16T01:58:21.970Z,17.09
2023-05-16T02:00:53.381Z,17.07
2023-05-16T02:03:23.583Z,17.03
2023-05-16T02:05:53.212Z,16.98
2023-05-16T02:08:22.854Z,16.95
2023-05-16T02:10:53.078Z,16.94
2023-05-16T02:13:23.290Z,16.92
2023-05-16T02:15:52.895Z,16.89
2023-05-16T02:18:23.869Z,16.88
2023-05-16T02:20:52.698Z,16.86
2023-05-16T02:23:22.188Z,16.84
2023-05-16T02:25:51.652Z,16.80
2023-05-16T02:28:22.178Z,16.79
2023-05-16T02:30:59.289Z,16.77
2023-05-16T02:33:29.092Z,16.80
2023-05-16T02:35:58.532Z,16.83
2023-05-16T02:38:28.232Z,16.86
2023-05-16T02:40:58.431Z,16.86
2023-05-16T02:43:27.962Z,16.90
2023-05-16T02:45:57.554Z,16.90
2023-05-16T02:48:26.430Z,16.92
2023-05-16T02:50:55.782Z,16.94
2023-05-16T02:53:24.908Z,16.94
2023-05-16T02:55:53.952Z,16.94
2023-05-16T02:58:23.152Z,16.91
2023-05-16T03:00:52.888Z,16.88
2023-05-16T03:03:22.444Z,16.89
2023-05-16T03:05:51.599Z,16.87
2023-05-16T03:08:21.219Z,16.87
2023-05-16T03:10:50.777Z,16.85
2023-05-16T03:13:23.298Z,16.83
2023-05-16T03:15:52.975Z,16.81
2023-05-16T03:18:22.295Z,16.80
2023-05-16T03:20:53.235Z,16.78
2023-05-16T03:23:22.576Z,16.79
2023-05-16T03:25:51.999Z,16.80
2023-05-16T03:28:23.313Z,16.81
2023-05-16T03:30:53.971Z,16.80
2023-05-16T03:33:24.466Z,16.77
2023-05-16T03:35:53.886Z,16.76
2023-05-16T03:38:23.022Z,16.80
2023-05-16T03:40:52.834Z,16.78
2023-05-16T03:43:22.224Z,16.77
2023-05-16T03:45:51.081Z,16.79
2023-05-16T03:48:20.837Z,16.84
2023-05-16T03:50:51.309Z,16.86
2023-05-16T03:53:21.688Z,16.86
2023-05-16T03:55:51.634Z,16.86
2023-05-16T03:58:20.502Z,16.87
2023-05-16T04:00:49.819Z,16.85
2023-05-16T04:03:20.229Z,16.84
2023-05-16T04:05:49.320Z,16.84
2023-05-16T04:08:20.276Z,16.83
2023-05-16T04:10:49.828Z,16.85
2023-05-16T04:13:19.105Z,16.84
2023-05-16T04:15:48.265Z,16.79
2023-05-16T04:18:17.581Z,16.80
2023-05-16T04:20:48.385Z,16.84
2023-05-16T04:23:17.579Z,16.80
2023-05-16T04:25:47.979Z,16.84
2023-05-16T04:28:18.925Z,16.88
2023-05-16T04:30:48.470Z,16.92
2023-05-16T04:33:18.693Z,16.96
2023-05-16T04:35:48.392Z,16.95
2023-05-16T04:38:17.656Z,16.93
2023-05-16T04:40:46.889Z,16.92
2023-05-16T04:43:15.981Z,16.94
2023-05-16T04:45:45.408Z,16.93
2023-05-16T04:48:15.196Z,16.89
2023-05-16T04:50:44.876Z,16.86
2023-05-16T04:53:14.890Z,16.87
2023-05-16T04:55:44.522Z,16.89
2023-05-16T04:58:13.552Z,16.88
2023-05-16T05:00:42.931Z,16.87
2023-05-16T05:03:12.563Z,16.87
2023-05-16T05:05:42.593Z,16.90
2023-05-16T05:08:11.733Z,16.90
2023-05-16T05:10:40.935Z,16.90
2023-05-16T05:13:11.837Z,16.93
2023-05-16T05:15:41.037Z,16.92
2023-05-16T05:18:10.294Z,16.92
2023-05-16T05:20:39.629Z,16.95
2023-05-16T05:23:09.524Z,16.96
2023-05-16T05:25:39.396Z,16.98
2023-05-16T05:28:08.768Z,17.01
2023-05-16T05:30:42.283Z,16.98
2023-05-16T05:33:13.963Z,16.98
2023-05-16T05:35:43.478Z,16.98
2023-05-16T05:38:14.621Z,16.99
2023-05-16T05:40:44.793Z,17.03
2023-05-16T05:43:14.723Z,17.05
2023-05-16T05:45:44.390Z,17.09
2023-05-16T05:48:14.236Z,17.10
2023-05-16T05:50:43.135Z,17.07
2023-05-16T05:53:15.881Z,17.03
2023-05-16T05:55:45.029Z,17.01
2023-05-16T05:58:14.632Z,16.95
2023-05-16T06:00:43.821Z,16.92
2023-05-16T06:03:14.702Z,16.85
2023-05-16T06:05:44.679Z,16.80
2023-05-16T06:08:14.558Z,16.75
2023-05-16T06:10:44.973Z,16.73
2023-05-16T06:13:14.664Z,16.69
2023-05-16T06:15:44.508Z,16.61
2023-05-16T06:18:14.815Z,16.57
2023-05-16T06:20:44.813Z,16.55
2023-05-16T06:23:14.406Z,16.52
2023-05-16T06:25:43.940Z,16.49
2023-05-16T06:28:13.650Z,16.48
2023-05-16T06:30:42.727Z,16.49
2023-05-16T06:33:12.317Z,16.49
2023-05-16T06:35:41.578Z,16.52
2023-05-16T06:38:11.698Z,16.53
2023-05-16T06:40:41.270Z,16.54
2023-05-16T06:43:12.312Z,16.57
2023-05-16T06:45:42.120Z,16.56
2023-05-16T06:48:13.553Z,16.56
2023-05-16T06:50:43.057Z,16.57
2023-05-16T06:53:13.146Z,16.56
2023-05-16T06:55:42.912Z,16.56
2023-05-16T06:58:13.440Z,16.57
2023-05-16T07:00:44.627Z,16.59
2023-05-16T07:03:14.591Z,16.63
2023-05-16T07:05:44.399Z,16.66
2023-05-16T07:08:14.610Z,16.69
2023-05-16T07:10:44.781Z,16.73
2023-05-16T07:13:14.555Z,16.75
2023-05-16T07:15:44.056Z,16.80
2023-05-16T07:18:14.122Z,16.85
2023-05-16T07:20:43.928Z,16.90
2023-05-16T07:23:13.669Z,16.95
2023-05-16T07:25:43.266Z,17.03
2023-05-16T07:28:13.662Z,17.09
2023-05-16T07:30:43.915Z,17.14
2023-05-16T07:33:14.183Z,17.19
2023-05-16T07:35:43.763Z,17.23
2023-05-16T07:38:13.670Z,17.27
2023-05-16T07:40:44.446Z,17.33
2023-05-16T07:43:14.694Z,17.38
2023-05-16T07:45:43.816Z,17.44
2023-05-16T07:48:13.681Z,17.49
2023-05-16T07:50:44.105Z,17.57
2023-05-16T07:53:13.972Z,17.61
2023-05-16T07:55:44.333Z,17.64
2023-05-16T07:58:14.667Z,17.62
2023-05-16T08:00:44.418Z,17.63
2023-05-16T08:03:14.446Z,17.64
2023-05-16T08:05:44.241Z,17.67
2023-05-16T08:08:14.162Z,17.69
2023-05-16T08:10:44.083Z,17.71
2023-05-16T08:13:13.678Z,17.70
2023-05-16T08:15:43.135Z,17.63
2023-05-16T08:18:16.736Z,17.57
2023-05-16T08:20:46.851Z,17.51
2023-05-16T08:23:16.748Z,17.44
2023-05-16T08:25:46.430Z,17.41
2023-05-16T08:28:22.760Z,17.38
2023-05-16T08:30:54.358Z,17.33
2023-05-16T08:33:24.552Z,17.29
2023-05-16T08:35:54.106Z,17.24
2023-05-16T08:38:23.643Z,17.10
2023-05-16T08:40:53.578Z,17.04
2023-05-16T08:43:23.989Z,16.99
2023-05-16T08:45:53.632Z,16.95
2023-05-16T08:48:24.333Z,16.93
2023-05-16T08:50:54.025Z,16.89
2023-05-16T08:53:27.848Z,16.85
2023-05-16T08:55:57.269Z,16.86
2023-05-16T08:58:26.526Z,16.91
2023-05-16T09:00:56.236Z,16.92
2023-05-16T09:03:25.842Z,16.98
2023-05-16T09:05:55.993Z,17.07
2023-05-16T09:08:26.714Z,17.16
2023-05-16T09:10:56.106Z,17.25
2023-05-16T09:13:26.405Z,17.35
2023-05-16T09:16:16.898Z,17.46
2023-05-16T09:18:49.425Z,17.55
2023-05-16T09:21:19.056Z,17.68
2023-05-16T09:23:50.856Z,17.76
2023-05-16T09:26:22.169Z,17.85
2023-05-16T09:28:57.698Z,17.92
2023-05-16T09:31:30.669Z,18.00
2023-05-16T09:34:00.328Z,18.09
2023-05-16T09:36:29.798Z,18.19
2023-05-16T09:38:58.937Z,18.25
2023-05-16T09:41:27.760Z,18.27
2023-05-16T09:43:58.028Z,18.28
2023-05-16T09:46:28.281Z,18.28
2023-05-16T09:48:57.797Z,18.27
2023-05-16T09:51:27.058Z,18.27
2023-05-16T09:53:58.801Z,18.28
2023-05-16T09:56:30.027Z,18.30
2023-05-16T09:58:59.639Z,18.29
2023-05-16T10:01:29.346Z,18.31
2023-05-16T10:03:59.802Z,18.32
2023-05-16T10:06:31.058Z,18.36
2023-05-16T10:09:03.033Z,18.41
2023-05-16T10:11:32.819Z,18.45
2023-05-16T10:14:02.528Z,18.49
2023-05-16T10:16:31.854Z,18.51
2023-05-16T10:19:01.936Z,18.51
2023-05-16T10:21:31.726Z,18.52
2023-05-16T10:24:03.711Z,18.54
2023-05-16T10:26:33.154Z,18.54
2023-05-16T10:29:04.423Z,18.61
2023-05-16T10:31:33.980Z,18.65
2023-05-16T10:34:03.677Z,18.66
2023-05-16T10:36:33.615Z,18.67
2023-05-16T10:39:02.723Z,18.73
2023-05-16T10:41:33.694Z,18.77
2023-05-16T10:44:04.568Z,18.76
2023-05-16T10:46:34.019Z,18.74
2023-05-16T10:49:21.558Z,18.74
2023-05-16T10:52:08.783Z,18.68
2023-05-16T10:54:42.346Z,18.63
2023-05-16T10:57:14.990Z,18.61
2023-05-16T10:59:51.796Z,18.60
2023-05-16T11:02:33.249Z,18.58
2023-05-16T11:05:02.831Z,18.52
2023-05-16T11:07:35.804Z,18.49
2023-05-16T11:10:10.624Z,18.48
2023-05-16T11:12:50.001Z,18.48
2023-05-16T11:15:28.435Z,18.53
2023-05-16T11:18:16.967Z,18.62
2023-05-16T11:20:45.786Z,18.68
2023-05-16T11:23:21.800Z,18.77
2023-05-16T11:25:56.661Z,18.83
2023-05-16T11:28:26.532Z,18.87
2023-05-16T11:30:58.188Z,18.87
2023-05-16T11:33:28.927Z,18.87
2023-05-16T11:38:42.139Z,18.91
2023-05-16T11:41:11.334Z,18.84
2023-05-16T11:43:43.397Z,18.81
2023-05-16T11:46:17.048Z,18.81
2023-05-16T11:48:48.530Z,18.81
2023-05-16T11:51:20.952Z,18.80
2023-05-16T11:53:50.237Z,18.80
2023-05-16T11:56:18.959Z,18.84
2023-05-16T11:58:47.822Z,18.90
2023-05-16T12:01:17.048Z,18.95
2023-05-16T12:03:46.693Z,18.97
2023-05-16T12:06:15.809Z,19.00
2023-05-16T12:08:53.250Z,19.02
2023-05-16T12:11:23.998Z,19.05
2023-05-16T12:13:52.980Z,19.09
2023-05-16T12:16:21.808Z,19.10
2023-05-16T12:18:52.893Z,19.12
2023-05-16T12:21:22.531Z,19.12
2023-05-16T12:23:57.174Z,19.09
2023-05-16T12:26:30.232Z,19.07
2023-05-16T12:29:04.834Z,19.09
2023-05-16T12:31:38.316Z,19.09
2023-05-16T12:34:16.545Z,19.09
2023-05-16T12:36:45.660Z,19.11
2023-05-16T12:39:15.174Z,19.09
2023-05-16T12:41:44.055Z,19.11
2023-05-16T12:44:17.443Z,19.13
2023-05-16T12:46:48.235Z,19.14
2023-05-16T12:49:25.188Z,19.14
2023-05-16T12:51:54.644Z,19.14
2023-05-16T12:54:23.827Z,19.12
2023-05-16T12:56:52.800Z,19.08
2023-05-16T12:59:22.210Z,19.04
2023-05-16T13:01:51.726Z,19.02
2023-05-16T13:04:20.614Z,19.03
2023-05-16T13:09:21.166Z,19.00
2023-05-16T13:11:50.293Z,19.00
2023-05-16T13:14:19.010Z,18.97
2023-05-16T13:16:47.819Z,18.91
2023-05-16T13:19:17.010Z,18.92
2023-05-16T13:21:46.036Z,18.97
2023-05-16T13:24:14.714Z,19.05
2023-05-16T13:26:44.013Z,19.15
2023-05-16T13:29:13.099Z,19.25
2023-05-16T13:31:41.764Z,19.31
2023-05-16T13:34:10.892Z,19.37
2023-05-16T13:36:53.079Z,19.40
2023-05-16T13:39:11.477Z,19.41
2023-05-16T13:41:40.517Z,19.41
2023-05-16T13:44:10.151Z,19.40
2023-05-16T13:46:38.931Z,19.43
2023-05-16T13:49:08.662Z,19.44
2023-05-16T13:51:37.819Z,19.43
2023-05-16T13:54:09.669Z,19.46
2023-05-16T13:56:38.688Z,19.48
2023-05-16T13:59:10.205Z,19.50
2023-05-16T14:01:39.320Z,19.48
2023-05-16T14:04:11.312Z,19.49
2023-05-16T14:06:40.421Z,19.54
2023-05-16T14:09:13.035Z,19.62
2023-05-16T14:11:42.099Z,19.72
2023-05-16T14:14:11.729Z,19.79
2023-05-16T14:16:43.279Z,19.85
2023-05-16T14:19:14.483Z,19.93
2023-05-16T14:21:43.802Z,20.00
2023-05-16T14:24:12.532Z,20.04
2023-05-16T14:26:41.108Z,20.07
2023-05-16T14:29:11.999Z,20.03
2023-05-16T14:31:42.145Z,20.01
2023-05-16T14:34:13.005Z,19.98
2023-05-16T14:36:43.861Z,19.93
2023-05-16T14:39:12.762Z,19.91
2023-05-16T14:41:43.149Z,19.92
2023-05-16T14:44:13.256Z,19.93
2023-05-16T14:46:42.245Z,19.91
2023-05-16T14:49:11.084Z,19.91
2023-05-16T14:51:40.038Z,19.88
2023-05-16T14:54:08.911Z,19.84
2023-05-16T14:56:38.180Z,19.84
2023-05-16T14:59:07.126Z,19.81
2023-05-16T15:01:36.221Z,19.76
2023-05-16T15:04:06.753Z,19.76
2023-05-16T15:06:36.545Z,19.75
2023-05-16T15:09:08.235Z,19.75
2023-05-16T15:11:37.563Z,19.70
2023-05-16T15:14:07.005Z,19.69
2023-05-16T15:16:37.053Z,19.68
2023-05-16T15:19:06.081Z,19.67
2023-05-16T15:21:35.541Z,19.67
2023-05-16T15:24:04.958Z,19.68
2023-05-16T15:26:34.369Z,19.68
2023-05-16T15:29:03.282Z,19.67
2023-05-16T15:31:34.073Z,19.67
2023-05-16T15:34:03.065Z,19.67
2023-05-16T15:36:31.856Z,19.66
2023-05-16T15:39:01.496Z,19.63
2023-05-16T15:41:56.272Z,19.61
2023-05-16T15:44:02.359Z,19.59
2023-05-16T15:46:32.510Z,19.58
2023-05-16T15:49:03.141Z,19.57
2023-05-16T15:51:31.833Z,19.56
2023-05-16T15:54:00.682Z,19.56
2023-05-16T15:56:29.176Z,19.56
2023-05-16T15:58:58.303Z,19.54
2023-05-16T16:01:28.727Z,19.54
2023-05-16T16:03:58.274Z,19.52
2023-05-16T16:06:27.274Z,19.49
2023-05-16T16:08:55.996Z,19.49
2023-05-16T16:11:26.727Z,19.50
2023-05-16T16:13:55.345Z,19.47
2023-05-16T16:16:24.127Z,19.47
2023-05-16T16:18:53.911Z,19.45
2023-05-16T16:21:23.680Z,19.44
2023-05-16T16:23:53.856Z,19.43
2023-05-16T16:26:22.740Z,19.42
2023-05-16T16:28:51.899Z,19.40
2023-05-16T16:31:20.812Z,19.37
2023-05-16T16:33:50.030Z,19.35
2023-05-16T16:36:19.389Z,19.36
2023-05-16T16:38:48.210Z,19.36
2023-05-16T16:41:17.726Z,19.34
2023-05-16T16:43:46.420Z,19.31
2023-05-16T16:46:15.395Z,19.29
2023-05-16T16:48:44.300Z,19.27
2023-05-16T16:51:13.306Z,19.25
2023-05-16T16:53:42.741Z,19.24
2023-05-16T16:56:14.142Z,19.25
2023-05-16T16:58:44.162Z,19.24
2023-05-16T17:01:13.903Z,19.21
2023-05-16T17:03:43.511Z,19.16
2023-05-16T17:06:12.138Z,19.15
2023-05-16T17:08:40.754Z,19.16
2023-05-16T17:11:09.550Z,19.15
2023-05-16T17:13:41.508Z,19.13
2023-05-16T17:16:10.565Z,19.10
2023-05-16T17:18:41.157Z,19.07
2023-05-16T17:21:12.074Z,19.05
2023-05-16T17:23:44.048Z,19.02
2023-05-16T17:26:13.689Z,19.00
2023-05-16T17:28:44.343Z,18.99
2023-05-16T17:31:13.225Z,18.99
2023-05-16T17:33:42.272Z,18.97
2023-05-16T17:36:11.438Z,18.96
2023-05-16T17:38:40.851Z,18.94
2023-05-16T17:41:09.730Z,18.93
2023-05-16T17:43:38.969Z,18.90
2023-05-16T17:46:07.883Z,18.87
2023-05-16T17:48:37.261Z,18.85
2023-05-16T17:51:06.609Z,18.81
2023-05-16T17:53:36.179Z,18.79
2023-05-16T17:56:07.691Z,18.77
2023-05-16T17:58:36.723Z,18.73
2023-05-16T18:01:07.317Z,18.69
2023-05-16T18:03:36.662Z,18.66
2023-05-16T18:06:06.762Z,18.65
2023-05-16T18:08:36.441Z,18.60
2023-05-16T18:11:05.289Z,18.52
2023-05-16T18:13:35.418Z,18.48
2023-05-16T18:16:05.433Z,18.44
2023-05-16T18:18:36.363Z,18.39
2023-05-16T18:21:06.006Z,18.36
2023-05-16T18:23:39.323Z,18.33
2023-05-16T18:26:09.185Z,18.27
2023-05-16T18:28:39.610Z,18.24
2023-05-16T18:31:08.730Z,18.13
2023-05-16T18:36:28.708Z,18.00
2023-05-16T18:38:58.445Z,17.96
2023-05-16T18:41:28.671Z,17.95
2023-05-16T18:43:57.339Z,17.94
2023-05-16T18:46:27.763Z,17.93
2023-05-16T18:48:57.850Z,17.93
2023-05-16T18:51:28.142Z,17.91
2023-05-16T18:53:57.529Z,17.92
2023-05-16T18:56:27.684Z,17.89
2023-05-16T18:58:57.165Z,17.90
2023-05-16T19:01:25.947Z,17.90
2023-05-16T19:03:55.152Z,17.89
2023-05-16T19:06:24.043Z,17.89
2023-05-16T19:08:53.376Z,17.88
2023-05-16T19:11:22.789Z,17.86
2023-05-16T19:13:51.851Z,17.84
2023-05-16T19:16:20.923Z,17.85
2023-05-16T19:18:49.831Z,17.85
2023-05-16T19:21:18.832Z,17.82
2023-05-16T19:23:48.040Z,17.81
2023-05-16T19:26:17.024Z,17.80
2023-05-16T19:28:45.919Z,17.79
2023-05-16T19:31:16.329Z,17.80
2023-05-16T19:33:45.138Z,17.77
2023-05-16T19:36:13.839Z,17.72
2023-05-16T19:38:43.019Z,17.68
2023-05-16T19:41:12.389Z,17.66
2023-05-16T19:43:44.615Z,17.64
2023-05-16T19:46:14.827Z,17.62
2023-05-16T19:48:44.026Z,17.61
2023-05-16T19:51:13.216Z,17.60
2023-05-16T19:53:42.808Z,17.57
2023-05-16T19:56:11.820Z,17.54
2023-05-16T19:58:44.094Z,17.49
2023-05-16T20:01:13.327Z,17.46
2023-05-16T20:03:42.663Z,17.43
2023-05-16T20:06:11.902Z,17.39
2023-05-16T20:08:40.797Z,17.39
2023-05-16T20:11:09.883Z,17.37
2023-05-16T20:13:39.383Z,17.35
2023-05-16T20:16:08.218Z,17.34
2023-05-16T20:18:37.129Z,17.31
2023-05-16T20:21:06.272Z,17.27
2023-05-16T20:23:35.832Z,17.25
2023-05-16T20:26:04.693Z,17.24
2023-05-16T20:28:33.354Z,17.23
2023-05-16T20:31:02.146Z,17.20
2023-05-16T20:33:31.731Z,17.16
2023-05-16T20:36:00.434Z,17.11
2023-05-16T20:38:29.331Z,17.09
2023-05-16T20:40:58.320Z,17.07
2023-05-16T20:43:27.912Z,17.07
2023-05-16T20:45:57.042Z,17.05
2023-05-16T20:48:28.297Z,17.04
2023-05-16T20:50:57.383Z,17.00
2023-05-16T20:53:26.717Z,16.95
2023-05-16T20:55:55.414Z,16.94
2023-05-16T20:58:25.089Z,16.93
2023-05-16T21:00:53.711Z,16.92
2023-05-16T21:03:23.585Z,16.90
2023-05-16T21:05:53.400Z,16.89
2023-05-16T21:08:22.110Z,16.87
2023-05-16T21:10:51.102Z,16.85
2023-05-16T21:13:20.753Z,16.81
2023-05-16T21:15:49.474Z,16.78
2023-05-16T21:18:18.322Z,16.77
2023-05-16T21:20:47.994Z,16.74
2023-05-16T21:23:16.781Z,16.70
2023-05-16T21:25:45.976Z,16.67
2023-05-16T21:28:14.988Z,16.62
2023-05-16T21:30:44.266Z,16.59
2023-05-16T21:33:13.737Z,16.59
2023-05-16T21:35:42.777Z,16.57
2023-05-16T21:38:12.387Z,16.54
2023-05-16T21:40:41.187Z,16.53
2023-05-16T21:43:09.834Z,16.49
2023-05-16T21:45:40.497Z,16.46
2023-05-16T21:48:10.529Z,16.44
2023-05-16T21:50:41.130Z,16.43
2023-05-16T21:53:09.979Z,16.43
2023-05-16T21:55:38.537Z,16.41
2023-05-16T21:58:07.599Z,16.39
2023-05-16T22:00:36.394Z,16.36
2023-05-16T22:03:06.744Z,16.33
2023-05-16T22:05:35.396Z,16.32
2023-05-16T22:08:05.040Z,16.29
2023-05-16T22:10:33.624Z,16.27
2023-05-16T22:13:02.216Z,16.23
2023-05-16T22:15:31.352Z,16.21
2023-05-16T22:18:00.162Z,16.17
2023-05-16T22:20:29.943Z,16.15
2023-05-16T22:22:59.260Z,16.13
2023-05-16T22:25:28.129Z,16.15
2023-05-16T22:27:57.174Z,16.14
2023-05-16T22:30:26.065Z,16.11
2023-05-16T22:32:56.618Z,16.08
2023-05-16T22:35:27.257Z,16.04
2023-05-16T22:37:56.219Z,16.04
2023-05-16T22:40:26.900Z,16.06
2023-05-16T22:42:56.696Z,16.07
2023-05-16T22:45:25.814Z,16.10
2023-05-16T22:47:55.022Z,16.12
2023-05-16T22:50:24.636Z,16.12
2023-05-16T22:52:53.801Z,16.12
2023-05-16T22:55:24.022Z,16.13
2023-05-16T22:57:54.845Z,16.16
2023-05-16T23:00:24.255Z,16.20
2023-05-16T23:02:52.985Z,16.23
2023-05-16T23:05:21.937Z,16.26
2023-05-16T23:07:50.842Z,16.27
2023-05-16T23:10:19.862Z,16.30
2023-05-16T23:12:49.024Z,16.31
2023-05-16T23:15:19.828Z,16.34
2023-05-16T23:17:48.734Z,16.37
2023-05-16T23:20:17.963Z,16.37
2023-05-16T23:22:46.589Z,16.40
2023-05-16T23:25:15.235Z,16.41
2023-05-16T23:27:44.610Z,16.42
2023-05-16T23:30:14.810Z,16.42
2023-05-16T23:32:43.918Z,16.41
2023-05-16T23:35:13.265Z,16.42
2023-05-16T23:37:42.268Z,16.39
2023-05-16T23:40:11.846Z,16.39
2023-05-16T23:42:40.963Z,16.38
2023-05-16T23:45:10.517Z,16.37
2023-05-16T23:47:41.187Z,16.34
2023-05-16T23:50:10.948Z,16.32
2023-05-16T23:52:40.387Z,16.29
2023-05-16T23:55:10.039Z,16.29
2023-05-16T23:57:41.059Z,16.27
